Latest Weather Observations for Jabiru

IDD60801

Issued at 5:31 pm CST Wednesday 24 April 2019 (issued every 10 minutes, with the page automatically refreshed every 10 minutes)

About weather observations | Map of weather stations | Latest weather observations for NT | Other Formats
Station Details ID: 014198 Name: JABIRU AIRPORT Lat: -12.66 Lon: 132.89 Height: 26.5 m
Data from the previous 72 hours. | See also: Recent months at Jabiru
Date/Time
CST
Temp
°C
App
Temp
°C
Dew
Point
°C
Rel
Hum
%
Delta-T
°C
Wind Press
QNH
hPa
Press
MSL
hPa
Rain since
9am
mm
Dir  Spd
km/h
Gust
km/h
Spd
kts
Gust
kts
24/05:30pm 34.1 34.9 19.0 41 9.9 ESE 13 20 7 11 1008.8 1008.6 0.0
24/05:00pm 33.0 34.0 18.7 42 9.3 ESE 11 19 6 10 1008.7 1008.5 0.0
24/04:30pm 34.9 36.0 18.9 39 10.5 E 11 19 6 10 1008.4 1008.2 0.0
24/04:00pm 35.2 34.7 17.9 36 11.2 ESE 17 24 9 13 1008.4 1008.2 0.0
24/03:30pm 35.4 34.6 18.5 37 11.1 E 20 30 11 16 1008.4 1008.2 0.0
24/03:00pm 35.0 34.5 17.7 36 11.2 SE 17 32 9 17 1008.8 1008.6 0.0
24/02:30pm 35.6 35.3 18.2 35 11.4 ESE 17 28 9 15 1009.2 1009.0 0.0
24/02:00pm 35.4 34.8 18.9 37 10.9 ESE 20 30 11 16 1009.6 1009.4 0.0
24/01:30pm 33.8 32.8 17.5 38 10.5 ESE 19 32 10 17 1010.0 1009.8 0.0
24/01:00pm 35.3 34.7 17.5 34 11.5 SE 17 28 9 15 1010.3 1010.1 0.0
24/12:34pm 34.6 31.6 16.9 35 11.3 E 28 46 15 25 1010.4 1010.2 0.0
24/12:30pm 34.7 32.3 17.4 35 11.1 E 26 46 14 25 1010.6 1010.4 0.0
24/12:00pm 34.1 31.0 16.5 35 11.2 E 28 39 15 21 1010.9 1010.7 0.0
24/11:30am 34.2 33.5 18.3 39 10.4 ESE 19 32 10 17 1011.4 1011.2 0.0
24/11:00am 32.9 31.3 17.5 39 9.9 ESE 22 35 12 19 1012.0 1011.8 0.0
24/10:30am 32.1 31.7 19.4 47 8.3 E 20 28 11 15 1012.2 1012.0 0.0
24/10:00am 31.3 32.8 20.6 53 7.1 E 13 19 7 10 1012.6 1012.4 0.0
24/09:30am 29.9 32.8 21.0 59 5.9 ESE 7 13 4 7 1012.6 1012.4 0.0
24/09:00am 29.1 31.3 21.1 62 5.3 E 11 13 6 7 1012.6 1012.4 -
24/08:30am 28.0 30.5 20.3 63 5.1 E 7 11 4 6 1012.5 1012.3 0.0
24/08:00am 27.8 30.6 20.9 66 4.6 ESE 7 9 4 5 1012.2 1012.0 0.0
24/07:30am 26.5 30.7 21.0 72 3.6 CALM 0 0 0 0 1012.0 1011.8 0.0
24/07:00am 24.9 29.1 21.0 79 2.6 CALM 0 0 0 0 1011.8 1011.6 0.0
24/06:30am 25.3 28.1 20.8 76 3.0 ESE 7 11 4 6 1011.6 1011.4 0.0
24/06:00am 25.7 29.9 20.9 75 3.2 CALM 0 0 0 0 1011.5 1011.3 0.0
24/05:30am 25.8 30.0 21.0 75 3.2 CALM 0 0 0 0 1011.3 1011.1 0.0
24/05:00am 25.5 28.4 20.7 75 3.1 ESE 6 7 3 4 1011.0 1010.8 0.0
24/04:30am 25.4 29.4 20.6 75 3.1 CALM 0 6 0 3 1010.9 1010.7 0.0
24/04:00am 25.7 28.3 20.5 73 3.4 ESE 7 7 4 4 1010.6 1010.4 0.0
24/03:30am 26.0 28.7 20.3 71 3.7 ESE 6 7 3 4 1010.7 1010.5 0.0
24/03:00am 26.3 30.3 20.6 71 3.7 CALM 0 0 0 0 1010.9 1010.7 0.0
24/02:30am 26.5 30.4 20.3 68 4.1 CALM 0 0 0 0 1010.8 1010.6 0.0
24/02:00am 27.0 29.2 20.3 66 4.4 E 9 13 5 7 1010.8 1010.6 0.0
24/01:30am 27.4 29.0 20.0 64 4.8 ESE 11 19 6 10 1010.9 1010.7 0.0
24/01:00am 28.2 29.1 20.0 61 5.4 E 15 22 8 12 1011.3 1011.1 0.0
24/12:30am 28.5 29.5 20.2 60 5.5 E 15 24 8 13 1011.6 1011.4 0.0
24/12:00am 28.9 30.7 21.1 62 5.2 ESE 13 19 7 10 1011.7 1011.5 0.0
 
Date/Time
CST
Temp
°C
App
Temp
°C
Dew
Point
°C
Rel
Hum
%
Delta-T
°C
Wind Press
QNH
hPa
Press
MSL
hPa
Rain since
9am
mm
Dir  Spd
km/h
Gust
km/h
Spd
kts
Gust
kts
23/11:30pm 29.1 30.7 20.8 61 5.5 ESE 13 24 7 13 1011.9 1011.7 0.0
23/11:00pm 28.6 30.8 20.3 60 5.5 ESE 9 13 5 7 1011.7 1011.5 0.0
23/10:30pm 29.1 31.6 20.3 59 5.8 ESE 7 9 4 5 1011.6 1011.4 0.0
23/10:00pm 29.5 32.0 19.8 56 6.4 ESE 6 9 3 5 1011.7 1011.5 0.0
23/09:30pm 30.2 32.4 19.6 53 6.9 ESE 7 13 4 7 1011.6 1011.4 0.0
23/09:00pm 30.5 32.5 19.2 51 7.4 SE 7 11 4 6 1011.6 1011.4 0.0
23/08:30pm 30.9 32.2 19.3 50 7.6 SE 11 17 6 9 1011.1 1010.9 0.0
23/08:00pm 30.8 33.0 19.5 51 7.4 SE 7 13 4 7 1010.6 1010.4 0.0
23/07:30pm 30.7 33.9 19.7 52 7.2 ESE 2 7 1 4 1010.1 1009.9 0.0
23/07:00pm 31.5 33.5 19.2 48 8.0 SE 7 11 4 6 1009.7 1009.5 0.0
23/06:30pm 32.0 33.7 18.6 45 8.7 SE 7 13 4 7 1009.4 1009.2 0.0
23/06:00pm 32.9 34.1 18.3 42 9.5 ESE 9 15 5 8 1009.2 1009.0 0.0
23/05:30pm 34.1 34.1 17.3 36 10.8 SE 13 20 7 11 1008.9 1008.7 0.0
23/05:00pm 33.4 33.0 16.3 36 10.8 ESE 13 19 7 10 1008.7 1008.5 0.0
23/04:30pm 34.8 34.8 17.1 35 11.4 E 13 19 7 10 1008.6 1008.4 0.0
23/04:00pm 34.3 33.5 16.2 34 11.4 E 15 20 8 11 1008.5 1008.3 0.0
23/03:30pm 35.0 33.9 16.3 32 11.9 ESE 17 30 9 16 1008.5 1008.3 0.0
23/03:00pm 34.5 32.5 14.9 31 12.2 E 19 30 10 16 1008.9 1008.7 0.0
23/02:30pm 34.5 33.0 15.4 32 12.0 E 17 26 9 14 1009.2 1009.0 0.0
23/02:00pm 34.7 32.0 14.6 30 12.4 E 22 30 12 16 1009.6 1009.4 0.0
23/01:30pm 34.0 32.6 15.5 33 11.6 E 17 28 9 15 1010.1 1009.9 0.0
23/01:00pm 34.0 30.9 15.5 33 11.6 E 26 33 14 18 1010.5 1010.3 0.0
23/12:30pm 33.5 31.1 14.5 31 11.7 ESE 20 32 11 17 1010.9 1010.7 0.0
23/12:00pm 33.3 30.9 14.4 32 11.6 ESE 20 35 11 19 1011.4 1011.2 0.0
23/11:30am 33.2 30.5 15.7 35 11.0 ESE 24 33 13 18 1011.7 1011.5 0.0
23/11:00am 32.8 30.9 15.8 36 10.6 E 20 32 11 17 1012.1 1011.9 0.0
23/10:30am 32.3 31.8 17.7 41 9.4 ESE 17 24 9 13 1012.3 1012.1 0.0
23/10:00am 31.3 29.3 16.5 41 9.3 E 22 32 12 17 1012.1 1011.9 0.0
23/09:30am 29.7 30.7 19.4 54 6.7 ESE 13 19 7 10 1012.2 1012.0 0.0
23/09:00am 28.7 30.5 20.4 60 5.5 ESE 11 17 6 9 1012.1 1011.9 0.0
23/08:30am 27.5 29.9 20.8 67 4.4 ESE 9 13 5 7 1012.1 1011.9 0.0
23/08:00am 26.2 29.7 21.8 77 2.9 SE 6 7 3 4 1012.1 1011.9 0.0
23/07:30am 23.9 26.9 20.8 83 2.0 ESE 6 7 3 4 1011.8 1011.6 0.0
23/07:00am 23.1 26.9 20.1 83 1.9 CALM 0 0 0 0 1011.7 1011.5 0.0
23/06:30am 23.2 27.0 20.2 83 1.9 CALM 0 0 0 0 1011.3 1011.1 0.0
23/06:00am 23.3 26.6 19.9 81 2.2 SE 2 6 1 3 1010.9 1010.7 0.0
23/05:30am 24.0 26.8 20.5 81 2.3 SE 6 7 3 4 1010.8 1010.6 0.0
23/05:00am 24.0 26.5 19.9 78 2.6 SE 6 7 3 4 1010.8 1010.6 0.0
23/04:30am 24.2 27.9 19.9 77 2.8 CALM 0 0 0 0 1010.8 1010.6 0.0
23/04:00am 24.3 27.2 19.8 76 2.9 ENE 4 7 2 4 1010.8 1010.6 0.0
23/03:30am 24.8 28.4 19.8 74 3.2 CALM 0 0 0 0 1010.7 1010.5 0.0
23/03:00am 25.0 28.5 19.6 72 3.5 CALM 0 0 0 0 1010.9 1010.7 0.0
23/02:30am 25.2 28.2 19.3 70 3.8 ENE 2 6 1 3 1010.8 1010.6 0.0
23/02:00am 25.9 28.1 19.3 67 4.2 E 6 7 3 4 1011.1 1010.9 0.0
23/01:30am 25.9 28.5 19.3 67 4.3 SE 4 7 2 4 1011.1 1010.9 0.0
23/01:00am 25.8 28.2 18.7 65 4.5 ESE 4 7 2 4 1011.2 1011.0 0.0
23/12:30am 26.5 29.1 18.4 61 5.2 ESE 2 6 1 3 1011.5 1011.3 0.0
23/12:00am 26.5 27.6 18.1 60 5.3 E 9 11 5 6 1011.7 1011.5 0.0
 
Date/Time
CST
Temp
°C
App
Temp
°C
Dew
Point
°C
Rel
Hum
%
Delta-T
°C
Wind Press
QNH
hPa
Press
MSL
hPa
Rain since
9am
mm
Dir  Spd
km/h
Gust
km/h
Spd
kts
Gust
kts
22/11:30pm 27.2 28.3 17.9 56 5.9 SE 9 11 5 6 1011.7 1011.5 0.0
22/11:00pm 27.2 28.6 17.9 56 5.9 SE 7 11 4 6 1011.6 1011.4 0.0
22/10:30pm 27.1 28.6 18.1 58 5.7 SE 7 11 4 6 1011.7 1011.5 0.0
22/10:00pm 27.8 29.0 18.2 56 6.1 SE 9 13 5 7 1011.7 1011.5 0.0
22/09:30pm 27.9 29.3 17.4 52 6.6 SE 6 7 3 4 1011.4 1011.2 0.0
22/09:00pm 28.0 29.1 17.2 52 6.8 ESE 7 9 4 5 1011.2 1011.0 0.0
22/08:30pm 28.4 29.2 17.3 51 7.0 ESE 9 11 5 6 1010.9 1010.7 0.0
22/08:00pm 30.0 30.7 16.1 43 8.6 SE 7 9 4 5 1010.4 1010.2 0.0
22/07:30pm 30.9 30.9 15.3 38 9.6 SE 9 13 5 7 1010.0 1009.8 0.0
22/07:00pm 31.2 31.2 15.2 38 9.9 SE 9 13 5 7 1009.6 1009.4 0.0
22/06:30pm 32.1 32.1 15.1 35 10.5 SE 9 15 5 8 1009.1 1008.9 0.0
22/06:00pm 33.2 32.7 14.8 33 11.4 SE 11 17 6 9 1008.7 1008.5 0.0
22/05:30pm 34.2 32.9 13.6 29 12.6 SE 13 22 7 12 1008.5 1008.3 0.0
22/05:00pm 34.7 32.4 13.0 27 13.1 ESE 17 22 9 12 1008.3 1008.1 0.0
22/04:30pm 35.2 32.8 12.8 26 13.6 ESE 17 26 9 14 1008.2 1008.0 0.0
22/04:00pm 35.4 32.9 12.4 25 13.8 ESE 17 30 9 16 1008.1 1007.9 0.0
22/03:30pm 35.8 33.4 13.9 27 13.5 ESE 19 30 10 16 1008.3 1008.1 0.0
22/03:00pm 35.4 32.7 13.0 26 13.6 SE 19 30 10 16 1008.6 1008.4 0.0
22/02:30pm 35.4 32.9 13.5 26 13.4 ESE 19 30 10 16 1009.0 1008.8 0.0
22/02:00pm 35.6 33.9 13.7 27 13.4 ESE 15 26 8 14 1009.3 1009.1 0.0
22/01:30pm 34.9 32.8 13.7 28 13.0 ESE 17 30 9 16 1009.7 1009.5 0.0
22/01:00pm 34.9 33.4 14.2 28 12.7 SE 15 30 8 16 1010.0 1009.8 0.0
22/12:30pm 34.5 32.3 14.4 30 12.4 ESE 19 28 10 15 1010.3 1010.1 0.0
22/12:00pm 33.7 31.6 16.1 34 11.1 E 22 30 12 16 1010.7 1010.5 0.0
22/11:30am 33.1 32.2 18.1 41 9.7 E 20 30 11 16 1011.2 1011.0 0.0
22/11:00am 32.7 31.8 17.7 40 9.6 E 19 26 10 14 1011.4 1011.2 0.0
22/10:30am 31.5 33.3 21.1 54 7.0 ENE 13 17 7 9 1011.7 1011.5 0.0
22/10:00am 30.6 33.2 21.9 59 5.9 E 11 20 6 11 1011.9 1011.7 0.0
22/09:30am 29.4 31.7 22.1 65 4.9 E 13 19 7 10 1011.7 1011.5 0.0
22/09:00am 28.2 30.5 22.0 69 4.2 ESE 13 20 7 11 1011.6 1011.4 0.0
22/08:30am 27.2 30.2 21.9 73 3.6 ESE 9 13 5 7 1011.5 1011.3 0.0
22/08:00am 26.8 31.2 22.8 79 2.7 SSE 4 7 2 4 1011.4 1011.2 0.0
22/07:30am 25.3 29.4 22.2 83 2.1 ESE 4 7 2 4 1011.1 1010.9 0.0
22/07:00am 24.1 27.4 21.8 87 1.5 ESE 7 9 4 5 1010.7 1010.5 0.0
22/06:30am 24.0 28.4 22.1 89 1.3 SSE 2 6 1 3 1010.6 1010.4 0.0
22/06:00am 23.7 27.9 21.8 89 1.3 SE 2 7 1 4 1010.4 1010.2 0.0
22/05:30am 23.9 27.5 22.0 89 1.3 E 6 7 3 4 1010.0 1009.8 0.0
22/05:00am 24.6 29.4 22.1 86 1.7 CALM 0 0 0 0 1010.1 1009.9 0.0
22/04:30am 24.8 29.8 22.5 87 1.5 CALM 0 0 0 0 1010.1 1009.9 0.0
22/04:00am 24.8 29.7 22.3 86 1.7 CALM 0 0 0 0 1010.3 1010.1 0.0
22/03:30am 25.1 30.0 22.4 85 1.8 CALM 0 0 0 0 1010.5 1010.3 0.0
22/03:00am 25.5 30.3 22.2 82 2.2 CALM 0 0 0 0 1010.5 1010.3 0.0
22/02:30am 25.4 30.6 22.9 86 1.7 CALM 0 0 0 0 1010.5 1010.3 0.0
22/02:00am 25.6 30.8 22.9 85 1.8 CALM 0 0 0 0 1010.7 1010.5 0.0
22/01:30am 25.9 31.3 23.2 85 1.8 CALM 0 0 0 0 1011.1 1010.9 0.0
22/01:00am 25.8 31.2 23.3 86 1.7 CALM 0 0 0 0 1011.4 1011.2 0.0
22/12:30am 26.1 31.6 23.4 85 1.8 CALM 0 6 0 3 1011.5 1011.3 0.0
22/12:00am 26.7 30.9 23.2 81 2.4 NW 6 7 3 4 1011.4 1011.2 0.0
 
Date/Time
CST
Temp
°C
App
Temp
°C
Dew
Point
°C
Rel
Hum
%
Delta-T
°C
Wind Press
QNH
hPa
Press
MSL
hPa
Rain since
9am
mm
Dir  Spd
km/h
Gust
km/h
Spd
kts
Gust
kts
21/11:30pm 27.0 31.4 23.5 81 2.4 NW 6 7 3 4 1011.6 1011.4 0.0
21/11:00pm 27.3 31.5 23.5 80 2.6 NW 7 9 4 5 1011.5 1011.3 0.0
21/10:30pm 27.3 31.5 23.1 78 2.9 N 6 7 3 4 1011.4 1011.2 0.0
21/10:00pm 27.5 31.7 23.1 77 3.0 NW 6 7 3 4 1011.3 1011.1 0.0
21/09:30pm 27.7 30.6 22.4 73 3.6 NW 11 13 6 7 1011.0 1010.8 0.0
21/09:00pm 28.3 30.6 21.3 65 4.7 NW 11 15 6 8 1010.9 1010.7 0.0
21/08:30pm 29.1 31.7 18.5 52 6.8 ENE 2 7 1 4 1010.4 1010.2 0.0
21/08:00pm 29.6 32.6 18.4 51 7.2 CALM 0 0 0 0 1009.9 1009.7 0.0
21/07:30pm 30.3 31.8 17.7 46 8.0 ESE 6 7 3 4 1009.4 1009.2 0.0
21/07:00pm 31.1 32.5 17.4 44 8.7 E 6 7 3 4 1009.0 1008.8 0.0
21/06:30pm 31.9 32.6 16.2 38 9.9 E 7 11 4 6 1008.6 1008.4 0.0
21/06:00pm 33.3 33.1 14.8 32 11.4 ESE 9 13 5 7 1008.4 1008.2 0.0

Other formats

Comma delimited format used in spreadsheet applications
http://www.bom.gov.au/fwo/IDD60801/IDD60801.94137.axf

JavaScript Object Notation format (JSON) in row-major order
http://www.bom.gov.au/fwo/IDD60801/IDD60801.94137.json

Data quality

Most of these data are generated automatically and are frequently updated. Quality checks on data are not normally performed. It is possible for incorrect values to appear. Refer to information at About Latest Weather Observations and please check the disclaimer before using these data.